Virgin Islands National Park, VI

11:22 AM AST del 28 Settembre 2016 (GMT -0400)
NorthSide | | Change Station

Alt. 643 ft 18.36 °N, 64.94 °W | Updated 32 seconds ago

Partly Cloudy
Parzialmente nuvoloso
85.5 °F
Sembra 95 °F
N
13.0
Vento Variabile Vento da Est
Gusts 17.0 mph

Oggi
Massima -- | Minima -- °F
--% Possibilità di precip.
Ieri
Massima -- | Minima -- °F
Precip. -- in
Pressione 30.02 in
Visibilità 10.0 miglia
Nuvole Alcuni 3000 ft
Indice di calore 95 °F
Punto di rugiada 75 °F
Umidità 72%
Piovosità 0.00 in
Spessore del manto nevoso Non disponibile.
6:09 AM 6:10 PM
Luna calante, 5% visible
METAR TIST 281453Z AUTO 06013G21KT 10SM FEW030 33/26 A3002 RMK AO2 PK WND 07026/1427 SLP166 T03330256 50001
Pressione 30.02 in
Visibilità 10.0 miglia
Nuvole Alcuni 3000 ft
Indice di calore 95 °F
Punto di rugiada 75 °F
Umidità 72%
Piovosità 0.00 in
Spessore del manto nevoso Non disponibile.
6:09 AM 6:10 PM
Luna calante, 5% visible
METAR TIST 281453Z AUTO 06013G21KT 10SM FEW030 33/26 A3002 RMK AO2 PK WND 07026/1427 SLP166 T03330256 50001

10-Day Weather Forecast

Almanac

Astronomia

Sep. 28, 2016 Alba Tramonto
Ora attuale
Crepuscolo civile
Crepuscolo nautico
Crepuscolo astronomico
Luna
Estensione della luce visibile
Lunghezza del giorno
Tomorrow will be .
, % of the Moon is Illuminated

Gli estremi di oggi

State Highs State Lows

Community

WunderPhotos

Upload Photos

1,942,279 foto caricate!

WunderBlog® & News

Nearby

Qualità dell'aria

  Qualità dell'aria Indice AQ Inquinante
Not available.

Profondità neve

Stazione Profondità Altitudine

Attività sismica

Città  Distanza Mag. Data & Ora
Minimo Magnitudo Mostrato è 2.5.

Temperature delle acque costiere

Località Temperatura

Stations

Stazioni meteo nelle vicinanze

Ubicazione della stazione Temp. Raffreddamento del vento Punto di rugiada Umidità Vento Precip. Alt. Aggiornato Tipo
                   

Watches & Warnings

There are currently no watches in effect.